createdAt,value
2019-05-22T00:01:02.816Z,19.50
2019-05-22T00:03:37.192Z,23.83
2019-05-22T00:06:06.243Z,19.47
2019-05-22T00:08:36.077Z,20.57
2019-05-22T00:11:04.490Z,21.33
2019-05-22T00:13:38.375Z,20.57
2019-05-22T00:16:07.093Z,19.03
2019-05-22T00:18:34.740Z,18.00
2019-05-22T00:21:03.069Z,22.23
2019-05-22T00:23:32.830Z,21.50
2019-05-22T00:26:00.542Z,20.67
2019-05-22T00:28:29.885Z,22.20
2019-05-22T00:30:58.462Z,22.33
2019-05-22T00:33:26.193Z,19.40
2019-05-22T00:35:55.784Z,21.07
2019-05-22T00:38:24.750Z,20.23
2019-05-22T00:40:54.334Z,21.53
2019-05-22T00:43:30.793Z,22.43
2019-05-22T00:46:01.288Z,20.20
2019-05-22T00:48:29.934Z,20.53
2019-05-22T00:51:10.099Z,18.70
2019-05-22T00:53:49.025Z,23.93
2019-05-22T00:56:35.415Z,19.67
2019-05-22T00:59:08.642Z,20.67
2019-05-22T01:01:44.564Z,19.40
2019-05-22T01:04:13.901Z,22.20
2019-05-22T01:06:43.395Z,20.07
2019-05-22T01:09:20.117Z,23.13
2019-05-22T01:11:47.856Z,21.00
2019-05-22T01:14:18.679Z,22.73
2019-05-22T01:16:48.137Z,20.33
2019-05-22T01:19:15.839Z,20.87
2019-05-22T01:21:45.552Z,21.60
2019-05-22T01:24:14.263Z,20.37
2019-05-22T01:26:43.228Z,22.00
2019-05-22T01:29:11.567Z,21.93
2019-05-22T01:31:44.477Z,23.27
2019-05-22T01:34:13.136Z,20.23
2019-05-22T01:36:44.462Z,23.27
2019-05-22T01:39:21.573Z,19.57
2019-05-22T01:41:50.953Z,20.77
2019-05-22T01:44:21.468Z,22.53
2019-05-22T01:46:51.993Z,25.20
2019-05-22T01:49:21.397Z,21.60
2019-05-22T01:51:50.042Z,23.23
2019-05-22T01:54:18.779Z,22.37
2019-05-22T01:56:46.454Z,20.93
2019-05-22T01:59:15.279Z,21.90
2019-05-22T02:01:44.658Z,23.60
2019-05-22T02:04:14.872Z,19.23
2019-05-22T02:06:42.377Z,20.10
2019-05-22T02:09:30.165Z,18.83
2019-05-22T02:12:30.372Z,18.80
2019-05-22T02:14:58.560Z,20.23
2019-05-22T02:17:31.225Z,19.03
2019-05-22T02:19:59.340Z,19.27
2019-05-22T02:22:28.882Z,21.97
2019-05-22T02:24:57.113Z,19.13
2019-05-22T02:27:24.734Z,20.73
2019-05-22T02:29:54.586Z,19.37
2019-05-22T02:32:23.422Z,19.97
2019-05-22T02:34:53.585Z,19.87
2019-05-22T02:37:21.389Z,22.37
2019-05-22T02:39:49.824Z,27.63
2019-05-22T02:42:25.668Z,20.10
2019-05-22T02:44:53.984Z,21.10
2019-05-22T02:47:24.437Z,23.27
2019-05-22T02:49:53.916Z,23.27
2019-05-22T02:52:23.417Z,25.27
2019-05-22T02:54:51.197Z,21.27
2019-05-22T02:57:20.085Z,24.60
2019-05-22T02:59:47.705Z,23.47
2019-05-22T03:02:16.157Z,26.77
2019-05-22T03:05:00.691Z,25.37
2019-05-22T03:07:30.986Z,25.50
2019-05-22T03:10:00.605Z,23.57
2019-05-22T03:12:29.952Z,25.00
2019-05-22T03:15:00.599Z,25.50
2019-05-22T03:17:30.592Z,21.37
2019-05-22T03:20:00.797Z,26.30
2019-05-22T03:22:36.573Z,24.23
2019-05-22T03:25:08.453Z,22.43
2019-05-22T03:27:39.255Z,23.93
2019-05-22T03:30:13.426Z,25.13
2019-05-22T03:32:43.555Z,21.47
2019-05-22T03:35:12.370Z,20.87
2019-05-22T03:37:40.700Z,22.30
2019-05-22T03:40:09.811Z,25.27
2019-05-22T03:42:37.716Z,23.60
2019-05-22T03:45:06.901Z,21.50
2019-05-22T03:47:35.385Z,19.37
2019-05-22T03:50:06.490Z,21.23
2019-05-22T03:52:35.762Z,23.37
2019-05-22T03:55:04.512Z,21.43
2019-05-22T03:57:32.916Z,22.60
2019-05-22T04:00:01.277Z,19.33
2019-05-22T04:02:30.382Z,20.33
2019-05-22T04:04:58.328Z,19.27
2019-05-22T04:07:28.063Z,22.07
2019-05-22T04:09:56.916Z,18.07
2019-05-22T04:12:24.673Z,19.07
2019-05-22T04:14:52.379Z,21.40
2019-05-22T04:17:20.992Z,20.00
2019-05-22T04:19:51.448Z,19.53
2019-05-22T04:22:19.315Z,21.23
2019-05-22T04:24:47.018Z,20.13
2019-05-22T04:27:16.225Z,20.33
2019-05-22T04:29:44.592Z,19.17
2019-05-22T04:32:25.214Z,18.50
2019-05-22T04:34:53.821Z,18.73
2019-05-22T04:37:22.955Z,17.97
2019-05-22T04:39:54.447Z,20.43
2019-05-22T04:42:22.894Z,18.60
2019-05-22T04:45:12.160Z,16.57
2019-05-22T04:47:41.801Z,18.27
2019-05-22T04:50:09.948Z,19.03
2019-05-22T04:52:37.888Z,16.17
2019-05-22T04:55:07.111Z,19.10
2019-05-22T04:57:35.046Z,16.10
2019-05-22T05:00:03.264Z,14.23
2019-05-22T05:02:31.460Z,17.53
2019-05-22T05:04:59.557Z,16.50
2019-05-22T05:07:28.187Z,14.87
2019-05-22T05:09:56.595Z,14.93
2019-05-22T05:12:24.232Z,15.43
2019-05-22T05:14:52.282Z,11.90
2019-05-22T05:17:20.027Z,13.87
2019-05-22T05:19:47.793Z,13.63
2019-05-22T05:22:21.278Z,14.60
2019-05-22T05:24:49.181Z,11.40
2019-05-22T05:27:17.006Z,12.50
2019-05-22T05:29:44.946Z,11.40
2019-05-22T05:32:12.756Z,12.90
2019-05-22T05:34:54.087Z,12.33
2019-05-22T05:37:24.525Z,12.93
2019-05-22T05:40:20.219Z,14.03
2019-05-22T05:42:48.457Z,13.00
2019-05-22T05:45:16.187Z,13.07
2019-05-22T05:47:44.740Z,12.27
2019-05-22T05:50:14.497Z,11.97
2019-05-22T05:52:43.427Z,12.40
2019-05-22T05:55:12.486Z,11.70
2019-05-22T05:58:25.962Z,11.43
2019-05-22T06:00:56.971Z,11.80
2019-05-22T06:03:34.033Z,12.30
2019-05-22T06:06:15.155Z,12.97
2019-05-22T06:08:44.926Z,13.73
2019-05-22T06:11:45.128Z,11.17
2019-05-22T06:14:19.308Z,14.00
2019-05-22T06:17:39.744Z,12.97
2019-05-22T06:20:11.086Z,10.63
2019-05-22T06:22:41.924Z,10.93
2019-05-22T06:25:10.052Z,12.30
2019-05-22T06:27:54.936Z,13.50
2019-05-22T06:30:41.667Z,14.30
2019-05-22T06:33:39.123Z,12.63
2019-05-22T06:36:09.982Z,14.30
2019-05-22T06:39:00.217Z,13.07
2019-05-22T06:41:36.960Z,13.63
2019-05-22T06:44:40.850Z,12.53
2019-05-22T06:47:13.061Z,10.60
2019-05-22T06:49:54.758Z,10.63
2019-05-22T06:52:22.656Z,9.83
2019-05-22T06:54:51.356Z,11.90
2019-05-22T06:57:24.695Z,10.77
2019-05-22T07:00:11.330Z,15.53
2019-05-22T07:02:23.112Z,12.80
2019-05-22T07:04:51.433Z,15.87
2019-05-22T07:07:21.489Z,10.60
2019-05-22T07:09:49.130Z,10.57
2019-05-22T07:12:19.916Z,11.83
2019-05-22T07:15:47.913Z,10.20
2019-05-22T07:18:19.152Z,11.27
2019-05-22T07:20:48.854Z,9.77
2019-05-22T07:23:22.182Z,9.87
2019-05-22T07:25:52.135Z,10.13
2019-05-22T07:28:19.762Z,10.47
2019-05-22T07:30:48.154Z,10.83
2019-05-22T07:33:17.420Z,12.87
2019-05-22T07:36:07.222Z,10.60
2019-05-22T07:38:16.440Z,10.30
2019-05-22T07:40:44.882Z,12.83
2019-05-22T07:43:13.384Z,13.63
2019-05-22T07:45:41.452Z,14.03
2019-05-22T07:48:11.626Z,11.27
2019-05-22T07:50:48.060Z,10.97
2019-05-22T07:53:14.219Z,12.40
2019-05-22T07:55:42.140Z,10.70
2019-05-22T07:58:13.443Z,11.20
2019-05-22T08:01:01.726Z,12.60
2019-05-22T08:03:31.303Z,11.63
2019-05-22T08:06:00.011Z,11.70
2019-05-22T08:08:31.129Z,9.37
2019-05-22T08:10:59.223Z,10.47
2019-05-22T08:13:27.803Z,10.87
2019-05-22T08:15:56.061Z,10.97
2019-05-22T08:18:25.345Z,10.27
2019-05-22T08:20:53.170Z,11.43
2019-05-22T08:23:21.881Z,10.23
2019-05-22T08:25:50.083Z,12.50
2019-05-22T08:28:20.313Z,11.37
2019-05-22T08:30:48.752Z,10.70
2019-05-22T08:33:17.285Z,9.93
2019-05-22T08:35:45.419Z,9.27
2019-05-22T08:38:13.285Z,7.53
2019-05-22T08:40:41.350Z,8.87
2019-05-22T08:43:10.526Z,11.63
2019-05-22T08:45:38.280Z,7.67
2019-05-22T08:48:06.595Z,10.73
2019-05-22T08:50:36.940Z,10.60
2019-05-22T08:53:05.631Z,10.60
2019-05-22T08:55:34.950Z,8.27
2019-05-22T08:58:03.666Z,11.43
2019-05-22T09:00:32.229Z,8.90
2019-05-22T09:03:00.788Z,9.50
2019-05-22T09:05:28.825Z,11.07
2019-05-22T09:07:57.384Z,8.53
2019-05-22T09:10:26.324Z,9.90
2019-05-22T09:12:54.186Z,12.20
2019-05-22T09:15:22.310Z,9.10
2019-05-22T09:17:50.195Z,10.73
2019-05-22T09:20:21.000Z,11.10
2019-05-22T09:22:48.850Z,9.60
2019-05-22T09:25:16.960Z,9.27
2019-05-22T09:27:45.097Z,7.27
2019-05-22T09:30:13.346Z,8.00
2019-05-22T09:32:41.052Z,9.43
2019-05-22T09:35:09.027Z,10.60
2019-05-22T09:37:36.853Z,9.83
2019-05-22T09:40:04.822Z,9.10
2019-05-22T09:42:33.780Z,9.67
2019-05-22T09:45:01.451Z,12.03
2019-05-22T09:47:29.512Z,7.20
2019-05-22T09:49:57.151Z,10.60
2019-05-22T09:52:24.768Z,10.77
2019-05-22T09:54:52.404Z,8.70
2019-05-22T09:57:20.157Z,9.90
2019-05-22T09:59:47.772Z,7.60
2019-05-22T10:02:15.383Z,8.67
2019-05-22T10:04:43.125Z,9.10
2019-05-22T10:07:10.831Z,10.03
2019-05-22T10:09:38.463Z,8.77
2019-05-22T10:12:07.526Z,10.93
2019-05-22T10:14:35.568Z,8.97
2019-05-22T10:17:03.313Z,10.73
2019-05-22T10:19:30.956Z,9.37
2019-05-22T10:21:59.086Z,8.47
2019-05-22T10:24:26.873Z,9.53
2019-05-22T10:26:54.625Z,10.03
2019-05-22T10:29:22.558Z,9.10
2019-05-22T10:31:50.304Z,9.73
2019-05-22T10:34:17.889Z,10.50
2019-05-22T10:36:45.622Z,9.90
2019-05-22T10:39:13.251Z,8.60
2019-05-22T10:41:40.907Z,10.07
2019-05-22T10:44:08.627Z,7.53
2019-05-22T10:46:36.333Z,10.03
2019-05-22T10:49:03.971Z,8.07
2019-05-22T10:51:31.643Z,6.47
2019-05-22T10:53:59.473Z,7.13
2019-05-22T10:56:27.285Z,7.37
2019-05-22T10:58:54.942Z,8.20
2019-05-22T11:01:23.075Z,8.97
2019-05-22T11:03:51.016Z,8.50
2019-05-22T11:06:19.070Z,7.20
2019-05-22T11:08:46.764Z,8.00
2019-05-22T11:11:15.334Z,8.60
2019-05-22T11:14:00.105Z,7.57
2019-05-22T11:16:13.173Z,6.57
2019-05-22T11:18:40.895Z,7.50
2019-05-22T11:21:09.814Z,8.60
2019-05-22T11:23:51.330Z,7.83
2019-05-22T11:26:06.945Z,7.30
2019-05-22T11:28:35.031Z,9.70
2019-05-22T11:31:03.656Z,7.90
2019-05-22T11:33:34.353Z,7.70
2019-05-22T11:36:03.141Z,8.43
2019-05-22T11:38:31.119Z,8.33
2019-05-22T11:40:58.752Z,9.80
2019-05-22T11:43:26.855Z,7.37
2019-05-22T11:45:54.478Z,7.63
2019-05-22T11:48:24.128Z,9.20
2019-05-22T11:50:52.298Z,10.27
2019-05-22T11:53:20.418Z,9.77
2019-05-22T11:55:48.184Z,10.57
2019-05-22T11:58:15.831Z,7.80
2019-05-22T12:00:44.571Z,10.63
2019-05-22T12:03:12.384Z,10.67
2019-05-22T12:05:40.135Z,11.03
2019-05-22T12:08:08.051Z,9.87
2019-05-22T12:10:37.507Z,10.67
2019-05-22T12:13:06.761Z,10.57
2019-05-22T12:15:35.799Z,9.83
2019-05-22T12:18:04.617Z,10.27
2019-05-22T12:20:32.961Z,9.30
2019-05-22T12:23:01.301Z,11.97
2019-05-22T12:25:29.361Z,10.90
2019-05-22T12:27:57.260Z,11.77
2019-05-22T12:30:25.347Z,11.23
2019-05-22T12:32:53.836Z,10.30
2019-05-22T12:35:42.696Z,13.17
2019-05-22T12:38:11.528Z,12.27
2019-05-22T12:40:39.417Z,9.70
2019-05-22T12:43:07.207Z,9.63
2019-05-22T12:45:34.865Z,15.23
2019-05-22T12:48:03.678Z,8.83
2019-05-22T12:50:32.177Z,12.10
2019-05-22T12:53:01.620Z,10.10
2019-05-22T12:55:30.017Z,11.13
2019-05-22T12:57:59.772Z,8.90
2019-05-22T13:00:28.658Z,8.83
2019-05-22T13:02:57.493Z,7.60
2019-05-22T13:05:26.113Z,7.23
2019-05-22T13:07:54.435Z,7.50
2019-05-22T13:10:22.874Z,7.30
2019-05-22T13:12:50.564Z,8.47
2019-05-22T13:15:18.507Z,8.67
2019-05-22T13:17:46.509Z,7.80
2019-05-22T13:20:18.503Z,7.10
2019-05-22T13:22:48.965Z,7.13
2019-05-22T13:25:19.159Z,6.63
2019-05-22T13:27:48.261Z,9.73
2019-05-22T13:30:18.391Z,7.30
2019-05-22T13:32:46.669Z,7.73
2019-05-22T13:35:16.163Z,7.00
2019-05-22T13:37:44.006Z,6.50
2019-05-22T13:40:26.737Z,6.20
2019-05-22T13:42:42.776Z,7.10
2019-05-22T13:45:27.795Z,7.53
2019-05-22T13:47:42.701Z,7.97
2019-05-22T13:50:12.317Z,8.67
2019-05-22T13:52:40.780Z,7.43
2019-05-22T13:55:09.798Z,6.13
2019-05-22T13:57:40.311Z,7.37
2019-05-22T14:00:09.655Z,7.00
2019-05-22T14:02:37.670Z,6.43
2019-05-22T14:05:06.071Z,6.23
2019-05-22T14:07:33.890Z,8.80
2019-05-22T14:10:02.197Z,6.03
2019-05-22T14:12:31.146Z,7.63
2019-05-22T14:14:58.889Z,5.73
2019-05-22T14:17:30.853Z,6.90
2019-05-22T14:19:59.556Z,8.03
2019-05-22T14:22:27.217Z,7.33
2019-05-22T14:24:56.229Z,6.93
2019-05-22T14:27:24.611Z,9.03
2019-05-22T14:29:52.391Z,7.23
2019-05-22T14:32:20.099Z,8.10
2019-05-22T14:34:48.156Z,5.43
2019-05-22T14:37:16.182Z,6.83
2019-05-22T14:39:44.150Z,5.97
2019-05-22T14:42:13.604Z,5.90
2019-05-22T14:44:41.262Z,6.90
2019-05-22T14:47:14.075Z,5.87
2019-05-22T14:49:38.737Z,7.57
2019-05-22T14:52:07.008Z,6.57
2019-05-22T14:54:34.880Z,6.43
2019-05-22T14:57:02.635Z,5.93
2019-05-22T14:59:30.400Z,6.87
2019-05-22T15:01:58.129Z,5.40
2019-05-22T15:04:27.627Z,5.57
2019-05-22T15:06:55.448Z,7.67
2019-05-22T15:09:23.169Z,5.67
2019-05-22T15:11:51.043Z,6.50
2019-05-22T15:14:18.764Z,5.93
2019-05-22T15:16:46.468Z,8.37
2019-05-22T15:19:14.162Z,6.97
2019-05-22T15:21:41.820Z,7.87
2019-05-22T15:24:10.275Z,6.60
2019-05-22T15:26:38.250Z,6.33
2019-05-22T15:29:06.757Z,6.90
2019-05-22T15:31:34.545Z,5.63
2019-05-22T15:34:05.705Z,8.53
2019-05-22T15:36:34.067Z,6.50
2019-05-22T15:39:02.607Z,9.13
2019-05-22T15:41:30.834Z,6.37
2019-05-22T15:43:59.315Z,7.93
2019-05-22T15:46:27.579Z,6.00
2019-05-22T15:48:56.106Z,5.53
2019-05-22T15:51:29.315Z,5.33
2019-05-22T15:53:59.308Z,6.60
2019-05-22T15:56:30.262Z,7.53
2019-05-22T15:58:59.807Z,6.07
2019-05-22T16:01:29.250Z,5.97
2019-05-22T16:03:58.615Z,6.60
2019-05-22T16:06:28.975Z,5.80
2019-05-22T16:08:56.843Z,7.50
2019-05-22T16:11:27.739Z,6.70
2019-05-22T16:13:59.164Z,6.07
2019-05-22T16:16:27.816Z,5.83
2019-05-22T16:19:00.350Z,7.73
2019-05-22T16:21:28.904Z,5.63
2019-05-22T16:23:58.699Z,7.63
2019-05-22T16:26:28.302Z,7.27
2019-05-22T16:28:58.880Z,5.40
2019-05-22T16:31:27.610Z,5.60
2019-05-22T16:33:55.994Z,6.07
2019-05-22T16:36:25.404Z,5.73
2019-05-22T16:38:54.343Z,5.03
2019-05-22T16:41:24.804Z,6.03
2019-05-22T16:43:53.555Z,6.87
2019-05-22T16:46:23.058Z,5.97
2019-05-22T16:48:52.256Z,6.30
2019-05-22T16:51:22.073Z,5.23
2019-05-22T16:53:56.205Z,5.03
2019-05-22T16:56:25.699Z,5.90
2019-05-22T16:58:54.682Z,5.47
2019-05-22T17:01:23.607Z,5.33
2019-05-22T17:03:53.750Z,4.93
2019-05-22T17:06:22.475Z,6.10
2019-05-22T17:08:51.487Z,6.23
2019-05-22T17:11:19.753Z,4.97
2019-05-22T17:13:47.999Z,5.40
2019-05-22T17:16:16.145Z,5.57
2019-05-22T17:18:47.919Z,7.53
2019-05-22T17:21:16.757Z,6.20
2019-05-22T17:23:46.544Z,5.43
2019-05-22T17:26:15.691Z,5.37
2019-05-22T17:28:44.254Z,7.07
2019-05-22T17:31:14.881Z,6.00
2019-05-22T17:33:42.888Z,7.80
2019-05-22T17:36:11.450Z,4.87
2019-05-22T17:38:40.364Z,4.87
2019-05-22T17:41:09.885Z,7.10
2019-05-22T17:43:38.137Z,5.33
2019-05-22T17:46:07.390Z,7.30
2019-05-22T17:48:37.686Z,4.60
2019-05-22T17:51:07.897Z,6.07
2019-05-22T17:53:35.964Z,7.87
2019-05-22T17:56:05.659Z,4.93
2019-05-22T17:58:34.713Z,5.67
2019-05-22T18:01:03.944Z,6.23
2019-05-22T18:03:31.913Z,6.00
2019-05-22T18:06:00.157Z,6.77
2019-05-22T18:08:28.443Z,5.67
2019-05-22T18:10:57.711Z,5.83
2019-05-22T18:13:26.512Z,7.50
2019-05-22T18:15:54.176Z,5.83
2019-05-22T18:18:22.135Z,5.43
2019-05-22T18:20:50.644Z,5.10
2019-05-22T18:23:18.279Z,5.43
2019-05-22T18:25:45.998Z,5.23
2019-05-22T18:28:14.242Z,4.83
2019-05-22T18:30:54.855Z,3.53
2019-05-22T18:33:22.543Z,5.47
2019-05-22T18:35:50.317Z,7.53
2019-05-22T18:38:18.014Z,5.60
2019-05-22T18:40:47.839Z,5.37
2019-05-22T18:43:18.702Z,6.70
2019-05-22T18:45:45.423Z,8.03
2019-05-22T18:48:13.563Z,7.97
2019-05-22T18:50:41.646Z,7.43
2019-05-22T18:53:09.393Z,7.87
2019-05-22T18:55:37.312Z,6.40
2019-05-22T18:58:05.340Z,5.63
2019-05-22T19:00:34.194Z,6.10
2019-05-22T19:03:05.816Z,5.20
2019-05-22T19:05:35.117Z,5.70
2019-05-22T19:08:03.004Z,6.13
2019-05-22T19:10:31.403Z,4.83
2019-05-22T19:12:59.525Z,6.07
2019-05-22T19:15:27.478Z,5.23
2019-05-22T19:17:55.459Z,7.03
2019-05-22T19:20:25.656Z,7.20
2019-05-22T19:23:01.188Z,7.50
2019-05-22T19:25:25.452Z,6.80
2019-05-22T19:27:53.227Z,5.80
2019-05-22T19:30:21.409Z,6.83
2019-05-22T19:32:51.237Z,5.87
2019-05-22T19:35:19.552Z,6.37
2019-05-22T19:37:48.382Z,6.13
2019-05-22T19:40:18.678Z,7.93
2019-05-22T19:42:46.354Z,7.33
2019-05-22T19:45:14.985Z,6.53
2019-05-22T19:47:49.829Z,6.50
2019-05-22T19:50:23.390Z,8.00
2019-05-22T19:52:53.216Z,9.93
2019-05-22T19:55:21.977Z,8.00
2019-05-22T19:57:50.734Z,8.13
2019-05-22T20:00:19.976Z,7.27
2019-05-22T20:02:50.664Z,6.50
2019-05-22T20:05:18.108Z,6.60
2019-05-22T20:07:46.630Z,9.60
2019-05-22T20:10:15.115Z,8.17
2019-05-22T20:12:43.884Z,11.90
2019-05-22T20:15:12.850Z,10.87
2019-05-22T20:17:40.914Z,11.83
2019-05-22T20:20:12.295Z,8.80
2019-05-22T20:22:40.356Z,7.40
2019-05-22T20:25:08.232Z,10.03
2019-05-22T20:27:37.123Z,9.03
2019-05-22T20:30:18.469Z,10.20
2019-05-22T20:32:46.424Z,10.97
2019-05-22T20:35:15.373Z,9.47
2019-05-22T20:37:43.724Z,6.27
2019-05-22T20:40:11.711Z,5.77
2019-05-22T20:42:41.148Z,6.80
2019-05-22T20:45:10.192Z,6.77
2019-05-22T20:47:40.436Z,6.97
2019-05-22T20:50:09.539Z,6.23
2019-05-22T20:52:37.590Z,5.50
2019-05-22T20:55:06.583Z,5.13
2019-05-22T20:57:35.275Z,5.67
2019-05-22T21:00:06.188Z,4.33
2019-05-22T21:02:36.590Z,5.63
2019-05-22T21:05:05.093Z,5.23
2019-05-22T21:07:36.361Z,4.80
2019-05-22T21:10:05.560Z,5.13
2019-05-22T21:12:35.844Z,9.00
2019-05-22T21:15:04.237Z,5.33
2019-05-22T21:17:32.155Z,5.37
2019-05-22T21:20:00.105Z,10.50
2019-05-22T21:22:29.727Z,8.40
2019-05-22T21:24:57.909Z,5.37
2019-05-22T21:27:25.856Z,5.03
2019-05-22T21:29:54.603Z,5.30
2019-05-22T21:32:24.020Z,7.13
2019-05-22T21:34:51.797Z,7.57
2019-05-22T21:37:19.440Z,6.17
2019-05-22T21:39:47.498Z,7.23
2019-05-22T21:42:15.370Z,6.00
2019-05-22T21:44:43.723Z,8.93
2019-05-22T21:47:13.150Z,5.50
2019-05-22T21:49:43.707Z,6.47
2019-05-22T21:52:12.467Z,7.20
2019-05-22T21:54:40.581Z,8.57
2019-05-22T21:57:09.815Z,7.90
2019-05-22T21:59:37.432Z,6.03
2019-05-22T22:02:23.242Z,6.90
2019-05-22T22:04:51.275Z,6.70
2019-05-22T22:07:20.663Z,6.50
2019-05-22T22:09:49.164Z,8.07
2019-05-22T22:12:22.231Z,5.60
2019-05-22T22:14:50.767Z,5.20
2019-05-22T22:17:20.234Z,6.00
2019-05-22T22:19:49.449Z,6.03
2019-05-22T22:22:27.554Z,8.30
2019-05-22T22:24:55.307Z,5.40
2019-05-22T22:27:23.720Z,9.07
2019-05-22T22:29:52.461Z,5.47
2019-05-22T22:32:22.054Z,4.90
2019-05-22T22:34:51.104Z,6.23
2019-05-22T22:37:19.189Z,7.00
2019-05-22T22:39:54.413Z,5.83
2019-05-22T22:42:25.954Z,7.53
2019-05-22T22:44:54.298Z,6.97
2019-05-22T22:47:27.333Z,7.13
2019-05-22T22:49:57.482Z,5.73
2019-05-22T22:52:27.815Z,6.13
2019-05-22T22:54:56.140Z,8.00
2019-05-22T22:57:24.551Z,6.53
2019-05-22T22:59:52.179Z,5.67
2019-05-22T23:02:24.839Z,7.00
2019-05-22T23:04:54.172Z,7.27
2019-05-22T23:07:24.054Z,6.00
2019-05-22T23:09:52.152Z,5.37
2019-05-22T23:12:20.790Z,6.67
2019-05-22T23:14:53.291Z,6.83
2019-05-22T23:17:21.674Z,6.17
2019-05-22T23:19:49.573Z,5.33
2019-05-22T23:22:19.545Z,6.27
2019-05-22T23:24:48.880Z,5.17
2019-05-22T23:27:17.204Z,6.23
2019-05-22T23:29:45.541Z,6.67
2019-05-22T23:32:15.377Z,6.40
2019-05-22T23:34:44.388Z,6.73
2019-05-22T23:37:14.505Z,5.70
2019-05-22T23:39:47.233Z,7.77
2019-05-22T23:42:21.988Z,7.30
2019-05-22T23:44:53.905Z,8.93
2019-05-22T23:47:22.791Z,9.50
2019-05-22T23:49:50.533Z,7.17
2019-05-22T23:52:18.443Z,12.30
2019-05-22T23:54:48.059Z,7.93
2019-05-22T23:57:16.109Z,6.20
2019-05-22T23:59:48.639Z,7.33
